createdAt,value
2023-01-10T00:02:16.476Z,4.85
2023-01-10T00:04:45.108Z,5.63
2023-01-10T00:07:13.777Z,4.82
2023-01-10T00:09:42.427Z,5.25
2023-01-10T00:12:28.653Z,6.07
2023-01-10T00:14:57.251Z,5.40
2023-01-10T00:17:27.337Z,5.00
2023-01-10T00:19:55.981Z,4.72
2023-01-10T00:22:25.999Z,4.68
2023-01-10T00:24:54.964Z,5.00
2023-01-10T00:27:23.817Z,4.70
2023-01-10T00:29:53.853Z,5.35
2023-01-10T00:32:22.878Z,4.40
2023-01-10T00:34:52.974Z,5.00
2023-01-10T00:37:22.111Z,4.45
2023-01-10T00:39:50.718Z,4.47
2023-01-10T00:42:37.202Z,4.28
2023-01-10T00:45:06.196Z,4.35
2023-01-10T00:47:34.832Z,3.95
2023-01-10T00:50:05.871Z,3.60
2023-01-10T00:52:34.518Z,3.90
2023-01-10T00:55:03.327Z,3.33
2023-01-10T00:57:32.094Z,3.72
2023-01-10T01:00:00.854Z,4.38
2023-01-10T01:02:29.521Z,3.83
2023-01-10T01:04:58.245Z,3.47
2023-01-10T01:07:28.248Z,3.90
2023-01-10T01:10:14.581Z,3.67
2023-01-10T01:12:43.263Z,3.58
2023-01-10T01:15:12.217Z,4.28
2023-01-10T01:17:40.886Z,4.00
2023-01-10T01:20:10.228Z,4.63
2023-01-10T01:22:40.181Z,3.90
2023-01-10T01:25:09.510Z,4.10
2023-01-10T01:27:38.201Z,3.95
2023-01-10T01:30:07.670Z,4.50
2023-01-10T01:32:36.563Z,3.90
2023-01-10T01:35:05.706Z,4.50
2023-01-10T01:37:34.775Z,4.00
2023-01-10T01:40:05.204Z,3.65
2023-01-10T01:42:34.892Z,4.65
2023-01-10T01:45:33.735Z,4.03
2023-01-10T01:48:04.986Z,3.55
2023-01-10T01:50:36.409Z,3.90
2023-01-10T01:53:06.621Z,4.03
2023-01-10T01:55:37.600Z,4.47
2023-01-10T01:58:07.743Z,5.07
2023-01-10T02:00:36.529Z,3.05
2023-01-10T02:03:06.910Z,3.30
2023-01-10T02:05:37.474Z,2.72
2023-01-10T02:08:06.254Z,4.15
2023-01-10T02:10:39.677Z,3.65
2023-01-10T02:13:09.617Z,3.67
2023-01-10T02:15:38.280Z,3.35
2023-01-10T02:18:07.222Z,3.67
2023-01-10T02:20:40.379Z,3.10
2023-01-10T02:23:35.460Z,4.88
2023-01-10T02:26:17.713Z,4.65
2023-01-10T02:29:02.281Z,3.85
2023-01-10T02:31:39.158Z,3.45
2023-01-10T02:34:10.337Z,2.45
2023-01-10T02:36:44.205Z,2.75
2023-01-10T02:39:16.167Z,2.47
2023-01-10T02:41:47.680Z,2.38
2023-01-10T02:44:19.933Z,2.58
2023-01-10T02:46:50.611Z,2.42
2023-01-10T02:49:20.704Z,2.25
2023-01-10T02:51:49.383Z,3.08
2023-01-10T02:54:20.500Z,2.00
2023-01-10T02:57:10.008Z,2.45
2023-01-10T02:59:52.619Z,2.35
2023-01-10T03:02:26.804Z,1.90
2023-01-10T03:05:03.877Z,2.72
2023-01-10T03:07:37.480Z,2.85
2023-01-10T03:10:08.441Z,2.45
2023-01-10T03:12:39.722Z,1.60
2023-01-10T03:15:09.618Z,2.15
2023-01-10T03:17:39.132Z,1.65
2023-01-10T03:20:09.968Z,1.60
2023-01-10T03:22:40.387Z,2.00
2023-01-10T03:25:10.011Z,1.75
2023-01-10T03:27:42.007Z,1.33
2023-01-10T03:30:15.128Z,1.52
2023-01-10T03:32:44.069Z,1.10
2023-01-10T03:35:14.502Z,1.45
2023-01-10T03:37:46.526Z,1.10
2023-01-10T03:40:18.840Z,1.95
2023-01-10T03:43:07.157Z,1.35
2023-01-10T03:45:38.781Z,1.98
2023-01-10T03:48:08.964Z,1.58
2023-01-10T03:50:39.573Z,1.83
2023-01-10T03:53:08.227Z,2.03
2023-01-10T03:55:37.322Z,1.25
2023-01-10T03:58:05.913Z,1.85
2023-01-10T04:00:34.632Z,1.52
2023-01-10T04:03:03.640Z,1.50
2023-01-10T04:05:32.292Z,1.40
2023-01-10T04:08:02.378Z,1.45
2023-01-10T04:10:31.096Z,2.42
2023-01-10T04:13:01.702Z,1.45
2023-01-10T04:15:33.289Z,1.52
2023-01-10T04:18:01.980Z,2.55
2023-01-10T04:20:30.550Z,2.85
2023-01-10T04:22:59.127Z,2.30
2023-01-10T04:25:29.227Z,1.38
2023-01-10T04:27:58.044Z,1.83
2023-01-10T04:30:27.320Z,1.38
2023-01-10T04:32:56.015Z,2.00
2023-01-10T04:35:24.661Z,2.85
2023-01-10T04:37:53.262Z,1.65
2023-01-10T04:40:23.519Z,3.10
2023-01-10T04:42:53.543Z,2.20
2023-01-10T04:45:22.213Z,1.95
2023-01-10T04:47:52.010Z,2.35
2023-01-10T04:50:20.722Z,1.52
2023-01-10T04:52:49.424Z,1.30
2023-01-10T04:55:18.104Z,2.80
2023-01-10T04:57:46.682Z,2.17
2023-01-10T05:00:17.489Z,2.13
2023-01-10T05:02:46.202Z,2.13
2023-01-10T05:05:15.318Z,2.85
2023-01-10T05:07:44.113Z,2.05
2023-01-10T05:10:13.517Z,2.85
2023-01-10T05:12:42.239Z,3.88
2023-01-10T05:15:11.119Z,2.00
2023-01-10T05:17:41.267Z,2.38
2023-01-10T05:20:10.888Z,3.20
2023-01-10T05:22:39.546Z,3.03
2023-01-10T05:25:08.267Z,4.35
2023-01-10T05:27:36.946Z,2.63
2023-01-10T05:30:05.770Z,4.75
2023-01-10T05:32:34.421Z,2.08
2023-01-10T05:35:04.451Z,2.15
2023-01-10T05:37:33.249Z,2.75
2023-01-10T05:40:01.941Z,3.55
2023-01-10T05:42:30.580Z,1.95
2023-01-10T05:44:59.226Z,2.80
2023-01-10T05:47:27.860Z,2.50
2023-01-10T05:49:56.582Z,5.10
2023-01-10T05:52:26.693Z,3.25
2023-01-10T05:54:55.370Z,3.60
2023-01-10T05:57:24.763Z,3.97
2023-01-10T05:59:53.369Z,2.63
2023-01-10T06:02:22.781Z,2.20
2023-01-10T06:04:52.157Z,4.45
2023-01-10T06:07:20.731Z,2.55
2023-01-10T06:09:51.380Z,2.67
2023-01-10T06:12:20.200Z,2.38
2023-01-10T06:14:48.944Z,2.45
2023-01-10T06:17:17.555Z,3.30
2023-01-10T06:19:46.149Z,3.10
2023-01-10T06:22:14.792Z,3.58
2023-01-10T06:24:43.428Z,2.33
2023-01-10T06:27:13.497Z,2.97
2023-01-10T06:29:42.065Z,3.63
2023-01-10T06:32:10.739Z,2.78
2023-01-10T06:34:39.450Z,5.60
2023-01-10T06:37:08.551Z,4.60
2023-01-10T06:39:37.337Z,6.45
2023-01-10T06:42:05.971Z,4.65
2023-01-10T06:44:36.155Z,5.20
2023-01-10T06:47:04.926Z,4.35
2023-01-10T06:49:33.464Z,5.97
2023-01-10T06:52:02.057Z,7.82
2023-01-10T06:54:30.850Z,6.13
2023-01-10T06:56:59.508Z,4.60
2023-01-10T06:59:28.225Z,4.82
2023-01-10T07:01:58.419Z,6.05
2023-01-10T07:04:27.221Z,7.22
2023-01-10T07:06:55.994Z,6.53
2023-01-10T07:09:24.590Z,6.90
2023-01-10T07:11:53.286Z,6.65
2023-01-10T07:14:21.983Z,7.75
2023-01-10T07:16:50.741Z,7.70
2023-01-10T07:19:21.085Z,8.50
2023-01-10T07:21:49.771Z,7.75
2023-01-10T07:24:18.408Z,7.13
2023-01-10T07:26:47.022Z,5.32
2023-01-10T07:29:15.652Z,7.25
2023-01-10T07:31:44.337Z,6.32
2023-01-10T07:34:12.965Z,4.13
2023-01-10T07:36:42.910Z,5.57
2023-01-10T07:39:11.548Z,5.72
2023-01-10T07:41:40.224Z,5.68
2023-01-10T07:44:08.995Z,5.78
2023-01-10T07:46:37.673Z,5.88
2023-01-10T07:49:06.398Z,5.80
2023-01-10T07:51:35.192Z,5.50
2023-01-10T07:54:05.344Z,4.80
2023-01-10T07:56:34.023Z,4.05
2023-01-10T07:59:02.680Z,4.28
2023-01-10T08:01:31.308Z,4.35
2023-01-10T08:04:00.117Z,4.10
2023-01-10T08:06:28.807Z,4.80
2023-01-10T08:08:57.527Z,4.13
2023-01-10T08:11:27.576Z,4.32
2023-01-10T08:13:56.258Z,5.03
2023-01-10T08:16:25.051Z,4.40
2023-01-10T08:18:53.709Z,4.40
2023-01-10T08:21:22.250Z,4.43
2023-01-10T08:23:51.694Z,4.38
2023-01-10T08:26:20.333Z,4.55
2023-01-10T08:28:50.402Z,4.20
2023-01-10T08:31:19.082Z,3.90
2023-01-10T08:33:47.816Z,3.80
2023-01-10T08:36:17.344Z,5.35
2023-01-10T08:38:46.074Z,5.50
2023-01-10T08:41:14.782Z,4.20
2023-01-10T08:43:43.531Z,4.13
2023-01-10T08:46:13.574Z,3.90
2023-01-10T08:48:42.388Z,5.78
2023-01-10T08:51:11.489Z,4.32
2023-01-10T08:53:41.137Z,3.55
2023-01-10T08:56:10.232Z,4.25
2023-01-10T08:58:39.057Z,4.03
2023-01-10T09:01:08.554Z,5.00
2023-01-10T09:03:39.839Z,4.10
2023-01-10T09:06:08.788Z,3.85
2023-01-10T09:08:37.581Z,4.28
2023-01-10T09:11:06.889Z,4.50
2023-01-10T09:13:35.981Z,6.10
2023-01-10T09:16:04.941Z,4.10
2023-01-10T09:18:34.204Z,5.18
2023-01-10T09:21:04.375Z,4.93
2023-01-10T09:23:35.978Z,6.07
2023-01-10T09:26:05.493Z,6.30
2023-01-10T09:28:34.187Z,4.40
2023-01-10T09:31:05.203Z,4.75
2023-01-10T09:33:45.611Z,4.65
2023-01-10T09:36:16.596Z,4.60
2023-01-10T09:38:45.265Z,6.13
2023-01-10T09:41:29.681Z,5.10
2023-01-10T09:44:04.482Z,5.20
2023-01-10T09:46:39.572Z,4.00
2023-01-10T09:49:15.595Z,5.57
2023-01-10T09:51:48.813Z,4.20
2023-01-10T09:54:19.296Z,6.45
2023-01-10T09:56:49.481Z,6.40
2023-01-10T09:59:19.328Z,4.20
2023-01-10T10:01:48.696Z,4.95
2023-01-10T10:04:21.754Z,4.57
2023-01-10T10:06:52.137Z,4.95
2023-01-10T10:09:27.351Z,5.18
2023-01-10T10:12:02.068Z,4.30
2023-01-10T10:14:34.800Z,5.38
2023-01-10T10:17:10.920Z,5.20
2023-01-10T10:19:47.218Z,5.75
2023-01-10T10:22:23.887Z,7.00
2023-01-10T10:24:58.319Z,4.28
2023-01-10T10:27:33.931Z,3.90
2023-01-10T10:30:13.908Z,4.63
2023-01-10T10:32:58.413Z,5.00
2023-01-10T10:35:29.328Z,5.10
2023-01-10T10:38:04.061Z,3.85
2023-01-10T10:40:34.851Z,4.25
2023-01-10T10:43:09.578Z,5.20
2023-01-10T10:45:40.787Z,4.32
2023-01-10T10:48:15.427Z,6.72
2023-01-10T10:50:50.476Z,3.75
2023-01-10T10:53:20.475Z,3.33
2023-01-10T10:55:49.577Z,3.25
2023-01-10T10:58:18.527Z,4.72
2023-01-10T11:00:47.587Z,4.57
2023-01-10T11:03:27.827Z,3.60
2023-01-10T11:05:56.987Z,5.50
2023-01-10T11:08:27.436Z,3.83
2023-01-10T11:10:57.377Z,3.58
2023-01-10T11:13:29.571Z,4.32
2023-01-10T11:15:58.336Z,3.83
2023-01-10T11:18:27.751Z,3.45
2023-01-10T11:20:58.998Z,5.72
2023-01-10T11:23:38.317Z,5.38
2023-01-10T11:26:08.714Z,4.95
2023-01-10T11:28:38.857Z,7.30
2023-01-10T11:31:07.521Z,4.30
2023-01-10T11:33:37.111Z,5.60
2023-01-10T11:36:07.278Z,7.57
2023-01-10T11:38:37.784Z,5.53
2023-01-10T11:41:07.334Z,5.22
2023-01-10T11:43:36.810Z,5.32
2023-01-10T11:46:06.894Z,6.07
2023-01-10T11:51:35.900Z,4.38
2023-01-10T11:54:08.391Z,7.82
2023-01-10T11:56:39.941Z,5.25
2023-01-10T11:59:12.577Z,7.93
2023-01-10T12:01:42.832Z,7.53
2023-01-10T12:04:15.996Z,9.25
2023-01-10T12:06:46.070Z,6.05
2023-01-10T12:09:29.639Z,5.28
2023-01-10T12:12:04.728Z,7.78
2023-01-10T12:14:33.404Z,8.23
2023-01-10T12:17:02.716Z,6.90
2023-01-10T12:19:31.454Z,5.53
2023-01-10T12:22:01.525Z,5.35
2023-01-10T12:24:33.513Z,6.88
2023-01-10T12:27:03.195Z,6.25
2023-01-10T12:29:36.140Z,6.50
2023-01-10T12:32:06.907Z,6.55
2023-01-10T12:34:41.744Z,5.43
2023-01-10T12:37:15.655Z,8.35
2023-01-10T12:39:47.129Z,7.53
2023-01-10T12:42:41.193Z,6.85
2023-01-10T12:45:14.104Z,7.10
2023-01-10T12:47:48.895Z,4.93
2023-01-10T12:50:19.076Z,4.85
2023-01-10T12:52:50.038Z,6.53
2023-01-10T12:55:19.056Z,4.95
2023-01-10T12:57:51.900Z,6.13
2023-01-10T13:00:25.029Z,4.60
2023-01-10T13:02:56.375Z,8.32
2023-01-10T13:05:26.067Z,6.35
2023-01-10T13:07:56.477Z,6.65
2023-01-10T13:10:26.670Z,8.77
2023-01-10T13:12:57.570Z,7.75
2023-01-10T13:15:30.594Z,6.65
2023-01-10T13:18:02.140Z,6.82
2023-01-10T13:20:32.141Z,6.07
2023-01-10T13:23:02.048Z,4.75
2023-01-10T13:25:31.556Z,6.53
2023-01-10T13:28:01.180Z,6.50
2023-01-10T13:30:33.838Z,5.03
2023-01-10T13:33:04.915Z,3.53
2023-01-10T13:35:44.791Z,4.20
2023-01-10T13:38:19.122Z,3.92
2023-01-10T13:41:02.118Z,3.85
2023-01-10T13:43:37.871Z,4.20
2023-01-10T13:46:30.275Z,3.05
2023-01-10T13:49:17.693Z,5.13
2023-01-10T13:52:01.179Z,4.53
2023-01-10T13:54:31.556Z,3.47
2023-01-10T13:57:00.184Z,3.40
2023-01-10T14:00:05.376Z,5.13
2023-01-10T14:02:34.015Z,2.88
2023-01-10T14:05:04.047Z,3.75
2023-01-10T14:07:35.587Z,4.10
2023-01-10T14:10:07.321Z,4.47
2023-01-10T14:12:39.703Z,3.67
2023-01-10T14:15:10.159Z,4.43
2023-01-10T14:17:39.194Z,3.75
2023-01-10T14:20:10.039Z,4.25
2023-01-10T14:22:39.775Z,5.25
2023-01-10T14:25:18.254Z,3.25
2023-01-10T14:27:47.915Z,2.67
2023-01-10T14:30:18.621Z,3.45
2023-01-10T14:32:51.061Z,4.72
2023-01-10T14:35:21.271Z,2.88
2023-01-10T14:37:53.228Z,2.95
2023-01-10T14:40:26.467Z,3.70
2023-01-10T14:42:58.475Z,3.03
2023-01-10T14:45:32.392Z,4.35
2023-01-10T14:48:01.093Z,2.75
2023-01-10T14:50:32.719Z,3.55
2023-01-10T14:53:01.574Z,2.65
2023-01-10T14:55:31.650Z,4.65
2023-01-10T14:58:00.944Z,2.30
2023-01-10T15:00:30.492Z,5.53
2023-01-10T15:03:01.708Z,6.32
2023-01-10T15:05:32.243Z,4.13
2023-01-10T15:08:15.817Z,2.83
2023-01-10T15:10:47.202Z,3.70
2023-01-10T15:13:17.367Z,3.33
2023-01-10T15:15:48.039Z,2.88
2023-01-10T15:18:23.880Z,2.85
2023-01-10T15:20:53.247Z,4.95
2023-01-10T15:23:22.018Z,3.67
2023-01-10T15:25:58.847Z,3.00
2023-01-10T15:28:29.693Z,4.55
2023-01-10T15:30:59.645Z,4.95
2023-01-10T15:33:30.432Z,5.22
2023-01-10T15:35:59.514Z,3.17
2023-01-10T15:38:30.400Z,4.75
2023-01-10T15:41:02.718Z,4.60
2023-01-10T15:43:31.866Z,3.17
2023-01-10T15:46:01.145Z,4.53
2023-01-10T15:48:32.001Z,4.00
2023-01-10T15:51:03.861Z,3.55
2023-01-10T15:53:51.168Z,2.47
2023-01-10T15:56:22.622Z,2.72
2023-01-10T15:58:51.420Z,3.10
2023-01-10T16:01:20.402Z,3.22
2023-01-10T16:03:50.596Z,4.00
2023-01-10T16:06:22.157Z,2.90
2023-01-10T16:08:51.887Z,1.88
2023-01-10T16:11:37.287Z,2.50
2023-01-10T16:14:05.928Z,2.17
2023-01-10T16:16:34.640Z,3.60
2023-01-10T16:19:03.434Z,1.80
2023-01-10T16:21:35.412Z,5.78
2023-01-10T16:24:04.683Z,4.28
2023-01-10T16:26:35.117Z,2.33
2023-01-10T16:29:03.885Z,2.10
2023-01-10T16:31:32.500Z,1.92
2023-01-10T16:34:01.142Z,4.63
2023-01-10T16:36:29.826Z,2.00
2023-01-10T16:38:58.509Z,4.47
2023-01-10T16:41:44.856Z,2.03
2023-01-10T16:44:14.999Z,1.58
2023-01-10T16:46:43.675Z,5.22
2023-01-10T16:49:12.350Z,3.63
2023-01-10T16:51:41.661Z,4.85
2023-01-10T16:54:14.932Z,3.80
2023-01-10T16:56:45.173Z,3.70
2023-01-10T16:59:16.156Z,2.75
2023-01-10T17:01:46.543Z,3.35
2023-01-10T17:04:17.758Z,3.17
2023-01-10T17:06:46.536Z,4.13
2023-01-10T17:09:18.312Z,3.75
2023-01-10T17:11:46.944Z,2.33
2023-01-10T17:14:18.443Z,2.72
2023-01-10T17:16:47.930Z,4.90
2023-01-10T17:19:16.634Z,4.32
2023-01-10T17:21:45.214Z,3.28
2023-01-10T17:24:13.874Z,3.33
2023-01-10T17:26:42.643Z,3.80
2023-01-10T17:29:11.256Z,5.55
2023-01-10T17:31:41.279Z,3.67
2023-01-10T17:34:09.897Z,1.77
2023-01-10T17:36:39.943Z,2.83
2023-01-10T17:39:08.945Z,2.17
2023-01-10T17:41:37.627Z,3.28
2023-01-10T17:44:06.423Z,2.45
2023-01-10T17:46:35.169Z,3.45
2023-01-10T17:49:05.472Z,5.80
2023-01-10T17:51:34.087Z,3.22
2023-01-10T17:54:02.782Z,5.97
2023-01-10T17:56:31.573Z,3.50
2023-01-10T17:59:00.284Z,3.05
2023-01-10T18:01:28.965Z,2.60
2023-01-10T18:03:57.678Z,3.55
2023-01-10T18:06:27.857Z,3.00
2023-01-10T18:08:56.663Z,3.63
2023-01-10T18:11:25.586Z,2.20
2023-01-10T18:13:54.227Z,4.85
2023-01-10T18:16:24.484Z,2.88
2023-01-10T18:18:54.329Z,2.60
2023-01-10T18:21:23.019Z,2.47
2023-01-10T18:23:56.949Z,2.55
2023-01-10T18:26:25.597Z,4.88
2023-01-10T18:28:54.265Z,3.13
2023-01-10T18:31:23.021Z,4.68
2023-01-10T18:33:53.635Z,4.20
2023-01-10T18:36:23.276Z,4.13
2023-01-10T18:38:53.448Z,4.18
2023-01-10T18:41:22.491Z,3.00
2023-01-10T18:43:51.216Z,5.07
2023-01-10T18:46:20.529Z,4.93
2023-01-10T18:48:50.068Z,6.60
2023-01-10T18:51:19.228Z,4.65
2023-01-10T18:53:48.981Z,4.78
2023-01-10T18:56:19.113Z,7.07
2023-01-10T18:58:47.805Z,6.25
2023-01-10T19:01:17.593Z,5.82
2023-01-10T19:03:46.936Z,7.75
2023-01-10T19:06:17.459Z,3.40
2023-01-10T19:08:47.066Z,4.68
2023-01-10T19:11:16.976Z,3.25
2023-01-10T19:13:48.063Z,3.75
2023-01-10T19:16:17.616Z,3.42
2023-01-10T19:18:49.844Z,2.20
2023-01-10T19:21:18.795Z,6.15
2023-01-10T19:23:47.978Z,3.28
2023-01-10T19:26:16.921Z,5.32
2023-01-10T19:28:47.271Z,3.63
2023-01-10T19:31:17.206Z,3.03
2023-01-10T19:33:47.652Z,2.83
2023-01-10T19:36:16.475Z,4.18
2023-01-10T19:38:45.675Z,4.43
2023-01-10T19:41:15.031Z,4.78
2023-01-10T19:43:43.939Z,3.50
2023-01-10T19:46:14.756Z,3.72
2023-01-10T19:48:43.525Z,3.33
2023-01-10T19:51:13.363Z,6.45
2023-01-10T19:53:45.036Z,3.58
2023-01-10T19:56:18.364Z,1.98
2023-01-10T19:58:47.912Z,4.55
2023-01-10T20:01:19.707Z,3.10
2023-01-10T20:03:48.684Z,2.63
2023-01-10T20:06:18.063Z,2.95
2023-01-10T20:08:47.568Z,1.58
2023-01-10T20:11:16.954Z,2.25
2023-01-10T20:13:45.713Z,3.13
2023-01-10T20:16:15.089Z,2.95
2023-01-10T20:18:45.559Z,6.03
2023-01-10T20:21:15.296Z,2.85
2023-01-10T20:23:44.070Z,4.97
2023-01-10T20:26:14.084Z,2.25
2023-01-10T20:28:43.767Z,3.70
2023-01-10T20:31:14.488Z,3.83
2023-01-10T20:33:43.192Z,3.40
2023-01-10T20:36:14.746Z,2.05
2023-01-10T20:38:43.567Z,4.40
2023-01-10T20:41:13.146Z,2.78
2023-01-10T20:43:41.942Z,2.88
2023-01-10T20:46:11.963Z,2.05
2023-01-10T20:48:41.662Z,3.15
2023-01-10T20:51:12.662Z,4.30
2023-01-10T20:53:42.767Z,2.40
2023-01-10T20:56:12.864Z,2.28
2023-01-10T20:58:41.660Z,1.83
2023-01-10T21:01:10.925Z,3.20
2023-01-10T21:03:40.156Z,3.10
2023-01-10T21:06:09.139Z,3.53
2023-01-10T21:08:38.215Z,2.15
2023-01-10T21:11:08.867Z,2.38
2023-01-10T21:13:37.608Z,1.52
2023-01-10T21:16:07.030Z,2.17
2023-01-10T21:18:38.837Z,4.22
2023-01-10T21:21:07.775Z,1.45
2023-01-10T21:23:36.526Z,1.63
2023-01-10T21:26:06.188Z,2.05
2023-01-10T21:28:38.547Z,2.67
2023-01-10T21:31:07.415Z,2.47
2023-01-10T21:33:36.947Z,2.78
2023-01-10T21:36:06.192Z,3.63
2023-01-10T21:38:36.282Z,3.03
2023-01-10T21:41:09.445Z,2.88
2023-01-10T21:43:44.322Z,3.10
2023-01-10T21:46:13.450Z,2.80
2023-01-10T21:48:42.170Z,3.65
2023-01-10T21:51:10.797Z,4.80
2023-01-10T21:53:41.397Z,2.92
2023-01-10T21:56:10.321Z,3.42
2023-01-10T21:58:40.281Z,2.47
2023-01-10T22:01:08.943Z,3.97
2023-01-10T22:03:37.746Z,3.25
2023-01-10T22:06:06.736Z,3.65
2023-01-10T22:08:35.954Z,2.33
2023-01-10T22:11:04.564Z,3.88
2023-01-10T22:13:33.201Z,2.50
2023-01-10T22:16:03.575Z,1.50
2023-01-10T22:18:32.738Z,3.50
2023-01-10T22:21:01.565Z,1.83
2023-01-10T22:23:31.057Z,1.48
2023-01-10T22:26:00.225Z,1.90
2023-01-10T22:28:28.914Z,3.97
2023-01-10T22:30:57.614Z,1.10
2023-01-10T22:33:29.728Z,2.05
2023-01-10T22:36:00.770Z,5.60
2023-01-10T22:38:32.665Z,2.53
2023-01-10T22:41:06.821Z,3.55
2023-01-10T22:43:35.562Z,1.77
2023-01-10T22:46:04.356Z,3.83
2023-01-10T22:48:34.678Z,2.05
2023-01-10T22:51:05.282Z,2.20
2023-01-10T22:53:34.027Z,1.40
2023-01-10T22:56:02.959Z,2.33
2023-01-10T22:58:31.696Z,1.52
2023-01-10T23:01:00.326Z,3.05
2023-01-10T23:03:28.945Z,2.53
2023-01-10T23:05:59.508Z,2.78
2023-01-10T23:08:28.839Z,1.25
2023-01-10T23:10:57.504Z,3.85
2023-01-10T23:13:26.729Z,2.10
2023-01-10T23:15:58.541Z,3.30
2023-01-10T23:18:27.539Z,1.30
2023-01-10T23:20:56.281Z,1.65
2023-01-10T23:23:26.754Z,2.85
2023-01-10T23:26:02.348Z,2.35
2023-01-10T23:28:31.653Z,2.28
2023-01-10T23:31:00.257Z,4.85
2023-01-10T23:33:28.909Z,1.98
2023-01-10T23:35:57.646Z,3.70
2023-01-10T23:38:27.885Z,5.22
2023-01-10T23:40:56.820Z,4.80
2023-01-10T23:43:25.808Z,4.07
2023-01-10T23:45:54.494Z,2.80
2023-01-10T23:48:23.329Z,2.63
2023-01-10T23:50:52.512Z,5.38
2023-01-10T23:53:21.307Z,3.90
2023-01-10T23:55:51.439Z,5.25
2023-01-10T23:58:20.059Z,5.75
